createdAt,value
2023-02-03T00:01:48.207Z,7.50
2023-02-03T00:04:16.058Z,7.60
2023-02-03T00:06:43.201Z,7.60
2023-02-03T00:09:10.148Z,7.60
2023-02-03T00:11:37.185Z,7.60
2023-02-03T00:14:05.363Z,7.60
2023-02-03T00:16:32.381Z,7.70
2023-02-03T00:18:59.013Z,7.70
2023-02-03T00:21:25.945Z,7.70
2023-02-03T00:23:52.843Z,7.80
2023-02-03T00:26:19.627Z,7.70
2023-02-03T00:28:47.919Z,7.70
2023-02-03T00:31:20.184Z,7.70
2023-02-03T00:33:47.784Z,7.70
2023-02-03T00:36:14.876Z,7.70
2023-02-03T00:38:41.537Z,7.70
2023-02-03T00:41:09.349Z,7.80
2023-02-03T00:43:36.069Z,7.80
2023-02-03T00:46:02.865Z,7.70
2023-02-03T00:51:05.518Z,7.80
2023-02-03T00:53:33.146Z,7.80
2023-02-03T00:56:01.457Z,7.80
2023-02-03T00:58:28.514Z,7.80
2023-02-03T01:00:58.681Z,7.70
2023-02-03T01:03:25.493Z,7.80
2023-02-03T01:05:52.321Z,7.80
2023-02-03T01:08:20.004Z,7.80
2023-02-03T01:10:46.852Z,7.80
2023-02-03T01:13:13.568Z,7.80
2023-02-03T01:15:47.754Z,7.80
2023-02-03T01:18:15.047Z,7.70
2023-02-03T01:20:41.927Z,7.80
2023-02-03T01:23:08.646Z,7.80
2023-02-03T01:25:36.384Z,7.90
2023-02-03T01:28:03.380Z,7.90
2023-02-03T01:30:30.327Z,7.90
2023-02-03T01:32:57.395Z,7.90
2023-02-03T01:35:25.661Z,7.90
2023-02-03T01:37:52.432Z,7.90
2023-02-03T01:40:19.434Z,7.90
2023-02-03T01:42:46.172Z,8.00
2023-02-03T01:45:13.675Z,7.90
2023-02-03T01:47:48.371Z,8.00
2023-02-03T01:50:38.687Z,8.00
2023-02-03T01:53:10.575Z,8.00
2023-02-03T01:55:42.933Z,8.00
2023-02-03T01:58:16.033Z,8.00
2023-02-03T02:00:43.877Z,8.00
2023-02-03T02:03:11.193Z,8.00
2023-02-03T02:05:47.228Z,8.00
2023-02-03T02:08:15.617Z,8.00
2023-02-03T02:10:42.444Z,8.00
2023-02-03T02:13:09.355Z,8.00
2023-02-03T02:16:11.900Z,8.00
2023-02-03T02:18:57.549Z,8.00
2023-02-03T02:21:50.437Z,8.10
2023-02-03T02:24:37.245Z,8.10
2023-02-03T02:27:12.765Z,8.10
2023-02-03T02:30:07.747Z,8.00
2023-02-03T02:33:02.229Z,8.00
2023-02-03T02:36:05.217Z,8.00
2023-02-03T02:38:31.907Z,8.00
2023-02-03T02:41:26.732Z,8.00
2023-02-03T02:44:07.438Z,8.00
2023-02-03T02:46:42.691Z,8.00
2023-02-03T02:49:20.934Z,8.10
2023-02-03T02:51:49.543Z,8.10
2023-02-03T02:54:22.836Z,8.10
2023-02-03T02:56:57.862Z,8.10
2023-02-03T02:59:24.663Z,8.10
2023-02-03T03:01:51.660Z,8.20
2023-02-03T03:04:21.898Z,8.10
2023-02-03T03:06:58.458Z,8.10
2023-02-03T03:09:35.988Z,8.20
2023-02-03T03:12:29.253Z,8.10
2023-02-03T03:15:04.047Z,8.10
2023-02-03T03:17:42.166Z,8.10
2023-02-03T03:20:15.972Z,8.00
2023-02-03T03:22:50.665Z,8.00
2023-02-03T03:25:21.587Z,7.90
2023-02-03T03:27:59.078Z,7.90
2023-02-03T03:30:29.682Z,7.90
2023-02-03T03:32:58.413Z,7.90
2023-02-03T03:35:32.422Z,7.90
2023-02-03T03:38:09.042Z,7.90
2023-02-03T03:40:43.619Z,7.90
2023-02-03T03:43:25.361Z,7.90
2023-02-03T03:46:03.009Z,7.90
2023-02-03T03:48:39.025Z,8.00
2023-02-03T03:51:10.680Z,8.00
2023-02-03T03:53:40.708Z,8.00
2023-02-03T03:56:14.058Z,8.00
2023-02-03T03:58:45.459Z,8.00
2023-02-03T04:01:15.194Z,8.00
2023-02-03T04:03:49.282Z,8.00
2023-02-03T04:06:16.503Z,8.00
2023-02-03T04:08:43.449Z,7.90
2023-02-03T04:11:10.192Z,8.00
2023-02-03T04:13:37.002Z,8.00
2023-02-03T04:16:03.808Z,8.00
2023-02-03T04:18:30.636Z,8.00
2023-02-03T04:20:57.419Z,8.00
2023-02-03T04:23:24.149Z,8.00
2023-02-03T04:25:50.832Z,8.00
2023-02-03T04:28:17.648Z,8.00
2023-02-03T04:30:44.445Z,8.10
2023-02-03T04:33:11.236Z,8.10
2023-02-03T04:35:37.941Z,8.20
2023-02-03T04:38:04.745Z,8.20
2023-02-03T04:40:33.364Z,8.20
2023-02-03T04:43:07.369Z,8.10
2023-02-03T04:45:34.147Z,8.10
2023-02-03T04:48:00.897Z,8.20
2023-02-03T04:50:27.970Z,8.20
2023-02-03T04:52:58.749Z,8.10
2023-02-03T04:55:25.473Z,8.20
2023-02-03T04:57:56.660Z,8.20
2023-02-03T05:00:23.814Z,8.20
2023-02-03T05:02:50.679Z,8.20
2023-02-03T05:05:17.867Z,8.20
2023-02-03T05:07:44.713Z,8.20
2023-02-03T05:10:11.606Z,8.20
2023-02-03T05:12:38.304Z,8.20
2023-02-03T05:15:05.461Z,8.30
2023-02-03T05:17:32.283Z,8.20
2023-02-03T05:19:59.035Z,8.20
2023-02-03T05:22:25.790Z,8.20
2023-02-03T05:24:52.553Z,8.20
2023-02-03T05:27:19.460Z,8.20
2023-02-03T05:29:46.226Z,8.20
2023-02-03T05:32:13.164Z,8.10
2023-02-03T05:34:42.235Z,8.20
2023-02-03T05:37:09.096Z,8.20
2023-02-03T05:39:35.800Z,8.10
2023-02-03T05:42:04.318Z,8.10
2023-02-03T05:44:31.222Z,8.20
2023-02-03T05:46:59.359Z,8.10
2023-02-03T05:49:26.434Z,8.10
2023-02-03T05:51:54.564Z,8.10
2023-02-03T05:54:24.374Z,8.10
2023-02-03T05:56:51.347Z,8.10
2023-02-03T05:59:18.128Z,8.10
2023-02-03T06:01:44.833Z,8.10
2023-02-03T06:04:11.714Z,8.00
2023-02-03T06:06:38.610Z,8.10
2023-02-03T06:09:08.414Z,8.10
2023-02-03T06:11:36.348Z,8.20
2023-02-03T06:14:03.761Z,8.20
2023-02-03T06:16:30.682Z,8.20
2023-02-03T06:18:59.479Z,8.10
2023-02-03T06:21:26.751Z,8.10
2023-02-03T06:23:54.564Z,8.10
2023-02-03T06:26:21.365Z,8.10
2023-02-03T06:28:48.191Z,8.10
2023-02-03T06:31:14.985Z,8.10
2023-02-03T06:33:41.819Z,8.10
2023-02-03T06:36:08.820Z,8.20
2023-02-03T06:38:35.521Z,8.20
2023-02-03T06:41:02.387Z,8.20
2023-02-03T06:43:29.191Z,8.20
2023-02-03T06:45:55.938Z,8.30
2023-02-03T06:48:23.723Z,8.20
2023-02-03T06:50:50.506Z,8.30
2023-02-03T06:53:17.333Z,8.30
2023-02-03T06:55:44.132Z,8.20
2023-02-03T06:58:10.895Z,8.30
2023-02-03T07:00:37.634Z,8.30
2023-02-03T07:03:04.511Z,8.30
2023-02-03T07:05:31.232Z,8.30
2023-02-03T07:07:59.013Z,8.40
2023-02-03T07:10:26.126Z,8.30
2023-02-03T07:12:53.040Z,8.40
2023-02-03T07:15:19.955Z,8.40
2023-02-03T07:17:54.195Z,8.40
2023-02-03T07:20:22.297Z,8.40
2023-02-03T07:22:57.910Z,8.40
2023-02-03T07:25:25.400Z,8.40
2023-02-03T07:27:52.646Z,8.40
2023-02-03T07:30:19.823Z,8.50
2023-02-03T07:32:48.323Z,8.50
2023-02-03T07:35:15.237Z,8.50
2023-02-03T07:37:42.908Z,8.50
2023-02-03T07:40:11.578Z,8.50
2023-02-03T07:42:46.194Z,8.50
2023-02-03T07:45:15.007Z,8.50
2023-02-03T07:47:43.015Z,8.60
2023-02-03T07:50:11.362Z,8.60
2023-02-03T07:52:39.160Z,8.70
2023-02-03T07:55:06.683Z,8.70
2023-02-03T07:57:33.579Z,8.60
2023-02-03T08:00:00.300Z,8.70
2023-02-03T08:02:27.291Z,8.70
2023-02-03T08:04:54.084Z,8.80
2023-02-03T08:07:20.744Z,8.80
2023-02-03T08:09:47.538Z,8.80
2023-02-03T08:12:14.290Z,8.90
2023-02-03T08:14:40.926Z,8.90
2023-02-03T08:17:07.649Z,8.90
2023-02-03T08:19:35.188Z,8.90
2023-02-03T08:22:02.035Z,8.90
2023-02-03T08:24:28.732Z,8.90
2023-02-03T08:26:55.489Z,8.90
2023-02-03T08:29:22.339Z,8.90
2023-02-03T08:31:49.134Z,8.90
2023-02-03T08:34:15.972Z,8.90
2023-02-03T08:36:44.150Z,8.90
2023-02-03T08:39:11.007Z,8.90
2023-02-03T08:41:38.055Z,9.00
2023-02-03T08:44:04.832Z,9.10
2023-02-03T08:46:31.525Z,9.10
2023-02-03T08:48:58.340Z,9.00
2023-02-03T08:51:25.060Z,9.00
2023-02-03T08:53:52.328Z,9.10
2023-02-03T08:56:19.265Z,9.10
2023-02-03T08:58:46.125Z,9.10
2023-02-03T09:01:15.382Z,9.20
2023-02-03T09:03:42.350Z,9.30
2023-02-03T09:06:11.634Z,9.40
2023-02-03T09:08:38.674Z,9.40
2023-02-03T09:11:12.120Z,9.40
2023-02-03T09:13:40.029Z,9.50
2023-02-03T09:16:08.221Z,9.50
2023-02-03T09:18:35.081Z,9.50
2023-02-03T09:21:13.978Z,9.50
2023-02-03T09:23:47.770Z,9.50
2023-02-03T09:26:16.926Z,9.50
2023-02-03T09:28:43.864Z,9.50
2023-02-03T09:31:12.483Z,9.50
2023-02-03T09:33:39.991Z,9.50
2023-02-03T09:36:07.979Z,9.60
2023-02-03T09:38:35.232Z,9.60
2023-02-03T09:41:12.247Z,9.60
2023-02-03T09:44:05.768Z,9.60
2023-02-03T09:46:41.157Z,9.70
2023-02-03T09:49:50.363Z,9.70
2023-02-03T09:52:22.866Z,9.60
2023-02-03T09:54:58.672Z,9.70
2023-02-03T09:57:28.518Z,9.80
2023-02-03T09:59:58.282Z,9.70
2023-02-03T10:02:41.671Z,9.80
2023-02-03T10:05:14.951Z,9.80
2023-02-03T10:08:10.017Z,9.90
2023-02-03T10:11:09.410Z,9.80
2023-02-03T10:13:48.325Z,9.80
2023-02-03T10:16:29.974Z,9.90
2023-02-03T10:19:02.628Z,9.90
2023-02-03T10:21:34.663Z,10.00
2023-02-03T10:24:03.786Z,10.00
2023-02-03T10:26:30.670Z,10.00
2023-02-03T10:29:01.453Z,10.00
2023-02-03T10:31:32.335Z,10.00
2023-02-03T10:34:11.862Z,10.00
2023-02-03T10:36:58.035Z,10.00
2023-02-03T10:39:39.352Z,10.00
2023-02-03T10:42:08.424Z,10.00
2023-02-03T10:44:49.079Z,10.10
2023-02-03T10:47:20.942Z,10.10
2023-02-03T10:49:50.920Z,10.10
2023-02-03T10:52:28.660Z,10.10
2023-02-03T10:54:56.494Z,10.00
2023-02-03T10:57:23.438Z,10.00
2023-02-03T10:59:50.401Z,10.10
2023-02-03T11:02:29.324Z,10.10
2023-02-03T11:05:17.930Z,10.10
2023-02-03T11:07:45.156Z,10.10
2023-02-03T11:10:43.097Z,10.00
2023-02-03T11:13:21.236Z,10.10
2023-02-03T11:16:04.926Z,10.10
2023-02-03T11:18:37.490Z,10.20
2023-02-03T11:21:08.994Z,10.10
2023-02-03T11:23:36.340Z,10.20
2023-02-03T11:26:20.069Z,10.20
2023-02-03T11:28:49.284Z,10.30
2023-02-03T11:31:25.136Z,10.30
2023-02-03T11:33:56.559Z,10.40
2023-02-03T11:36:26.421Z,10.40
2023-02-03T11:39:12.109Z,10.40
2023-02-03T11:41:40.471Z,10.40
2023-02-03T11:44:18.504Z,10.40
2023-02-03T11:46:48.343Z,10.40
2023-02-03T11:49:38.818Z,10.40
2023-02-03T11:52:22.269Z,10.40
2023-02-03T11:55:12.734Z,10.50
2023-02-03T11:58:03.485Z,10.30
2023-02-03T12:01:01.576Z,10.30
2023-02-03T12:04:01.003Z,10.30
2023-02-03T12:06:35.811Z,10.30
2023-02-03T12:09:22.761Z,10.30
2023-02-03T12:12:02.288Z,10.20
2023-02-03T12:14:56.982Z,10.20
2023-02-03T12:17:49.018Z,10.10
2023-02-03T12:20:29.077Z,10.10
2023-02-03T12:23:22.319Z,10.10
2023-02-03T12:26:12.003Z,10.10
2023-02-03T12:28:45.500Z,10.10
2023-02-03T12:31:41.480Z,10.10
2023-02-03T12:34:27.147Z,10.10
2023-02-03T12:37:10.022Z,10.20
2023-02-03T12:39:49.957Z,10.20
2023-02-03T12:42:29.636Z,10.20
2023-02-03T12:45:09.456Z,10.20
2023-02-03T12:48:00.963Z,10.20
2023-02-03T12:50:45.943Z,10.10
2023-02-03T12:53:33.028Z,10.10
2023-02-03T12:56:13.953Z,10.10
2023-02-03T12:58:58.487Z,10.10
2023-02-03T13:01:49.377Z,10.10
2023-02-03T13:04:27.716Z,10.10
2023-02-03T13:07:07.553Z,10.10
2023-02-03T13:09:58.984Z,10.20
2023-02-03T13:12:29.626Z,10.10
2023-02-03T13:15:24.772Z,10.10
2023-02-03T13:18:15.896Z,10.10
2023-02-03T13:20:42.812Z,10.10
2023-02-03T13:23:15.090Z,10.10
2023-02-03T13:26:19.912Z,10.10
2023-02-03T13:29:01.596Z,10.10
2023-02-03T13:31:43.384Z,10.10
2023-02-03T13:34:38.509Z,10.10
2023-02-03T13:37:35.659Z,10.10
2023-02-03T13:40:21.364Z,10.10
2023-02-03T13:42:55.389Z,10.10
2023-02-03T13:45:38.604Z,10.20
2023-02-03T13:48:20.420Z,10.20
2023-02-03T13:50:49.252Z,10.10
2023-02-03T13:53:18.705Z,10.20
2023-02-03T13:55:55.288Z,10.10
2023-02-03T13:58:25.974Z,10.10
2023-02-03T14:00:52.846Z,10.10
2023-02-03T14:03:25.592Z,10.10
2023-02-03T14:05:57.564Z,10.10
2023-02-03T14:08:30.247Z,10.10
2023-02-03T14:11:34.481Z,10.10
2023-02-03T14:14:10.192Z,10.10
2023-02-03T14:16:54.530Z,10.00
2023-02-03T14:19:31.320Z,9.80
2023-02-03T14:22:06.726Z,9.80
2023-02-03T14:24:35.576Z,9.70
2023-02-03T14:27:05.211Z,9.60
2023-02-03T14:29:37.423Z,9.50
2023-02-03T14:32:14.214Z,9.50
2023-02-03T14:34:46.853Z,9.50
2023-02-03T14:37:22.841Z,9.40
2023-02-03T14:40:11.310Z,9.30
2023-02-03T14:43:11.626Z,9.30
2023-02-03T14:45:57.710Z,9.20
2023-02-03T14:48:37.800Z,9.20
2023-02-03T14:51:36.735Z,9.20
2023-02-03T14:54:25.322Z,9.10
2023-02-03T14:57:16.127Z,9.20
2023-02-03T15:00:03.485Z,9.20
2023-02-03T15:02:31.674Z,9.10
2023-02-03T15:05:23.708Z,9.10
2023-02-03T15:07:52.008Z,9.10
2023-02-03T15:10:43.879Z,9.10
2023-02-03T15:13:31.285Z,9.10
2023-02-03T15:16:01.801Z,9.10
2023-02-03T15:18:36.300Z,9.10
2023-02-03T15:21:05.144Z,9.10
2023-02-03T15:23:47.859Z,9.00
2023-02-03T15:26:26.217Z,9.10
2023-02-03T15:28:58.348Z,9.10
2023-02-03T15:31:34.175Z,9.10
2023-02-03T15:34:06.864Z,9.20
2023-02-03T15:36:48.277Z,9.20
2023-02-03T15:39:39.260Z,9.20
2023-02-03T15:42:16.437Z,9.30
2023-02-03T15:45:22.231Z,9.30
2023-02-03T15:48:07.813Z,9.30
2023-02-03T15:53:58.851Z,9.30
2023-02-03T15:56:41.425Z,9.40
2023-02-03T15:59:23.271Z,9.30
2023-02-03T16:01:54.413Z,9.40
2023-02-03T16:04:23.466Z,9.40
2023-02-03T16:06:54.642Z,9.40
2023-02-03T16:09:35.648Z,9.40
2023-02-03T16:12:34.544Z,9.40
2023-02-03T16:15:02.480Z,9.40
2023-02-03T16:17:31.541Z,9.40
2023-02-03T16:20:10.739Z,9.40
2023-02-03T16:23:00.372Z,9.40
2023-02-03T16:25:30.656Z,9.40
2023-02-03T16:28:20.765Z,9.50
2023-02-03T16:31:31.739Z,9.50
2023-02-03T16:34:19.340Z,9.40
2023-02-03T16:37:04.576Z,9.40
2023-02-03T16:39:49.877Z,9.40
2023-02-03T16:42:39.741Z,9.40
2023-02-03T16:45:36.653Z,9.40
2023-02-03T16:48:35.256Z,9.40
2023-02-03T16:51:07.140Z,9.30
2023-02-03T16:53:41.027Z,9.30
2023-02-03T16:56:13.091Z,9.20
2023-02-03T16:58:40.265Z,9.10
2023-02-03T17:01:07.854Z,9.10
2023-02-03T17:03:35.686Z,9.10
2023-02-03T17:06:08.797Z,9.20
2023-02-03T17:08:37.009Z,9.10
2023-02-03T17:11:06.929Z,9.10
2023-02-03T17:13:34.529Z,9.10
2023-02-03T17:16:01.354Z,9.10
2023-02-03T17:18:28.439Z,9.10
2023-02-03T17:20:56.478Z,9.10
2023-02-03T17:23:24.910Z,9.10
2023-02-03T17:25:51.791Z,9.00
2023-02-03T17:28:18.790Z,9.10
2023-02-03T17:30:45.883Z,9.10
2023-02-03T17:33:13.075Z,9.10
2023-02-03T17:35:43.984Z,9.10
2023-02-03T17:38:13.329Z,9.20
2023-02-03T17:54:29.515Z,9.30
2023-02-03T17:56:56.413Z,9.30
2023-02-03T17:59:23.306Z,9.30
2023-02-03T18:01:50.021Z,9.30
2023-02-03T18:04:16.971Z,9.30
2023-02-03T18:06:44.015Z,9.30
2023-02-03T18:09:13.908Z,9.20
2023-02-03T18:11:40.949Z,9.30
2023-02-03T18:14:07.575Z,9.30
2023-02-03T18:16:36.210Z,9.30
2023-02-03T18:19:08.854Z,9.30
2023-02-03T18:21:38.840Z,9.20
2023-02-03T18:24:06.056Z,9.20
2023-02-03T18:26:36.714Z,9.20
2023-02-03T18:29:05.356Z,9.10
2023-02-03T18:31:33.022Z,9.10
2023-02-03T18:34:04.014Z,9.00
2023-02-03T18:36:32.022Z,9.00
2023-02-03T18:38:58.815Z,9.00
2023-02-03T18:41:26.587Z,9.00
2023-02-03T18:43:53.801Z,9.00
2023-02-03T18:46:26.863Z,9.00
2023-02-03T18:48:54.275Z,9.00
2023-02-03T18:51:21.847Z,8.90
2023-02-03T18:53:49.886Z,9.00
2023-02-03T18:56:28.274Z,8.90
2023-02-03T18:58:55.214Z,8.90
2023-02-03T19:01:26.827Z,9.00
2023-02-03T19:03:59.392Z,8.90
2023-02-03T19:06:28.216Z,8.90
2023-02-03T19:08:54.937Z,8.90
2023-02-03T19:11:23.251Z,8.90
2023-02-03T19:13:50.316Z,8.90
2023-02-03T19:16:17.604Z,9.00
2023-02-03T19:18:45.593Z,8.90
2023-02-03T19:21:13.566Z,8.90
2023-02-03T19:23:42.031Z,9.00
2023-02-03T19:26:10.032Z,9.00
2023-02-03T19:28:37.293Z,9.00
2023-02-03T19:31:08.406Z,8.90
2023-02-03T19:33:36.607Z,9.00
2023-02-03T19:36:05.086Z,9.00
2023-02-03T19:38:32.060Z,8.90
2023-02-03T19:40:59.086Z,8.90
2023-02-03T19:43:25.933Z,8.90
2023-02-03T19:45:52.733Z,8.90
2023-02-03T19:48:19.668Z,8.90
2023-02-03T19:50:49.703Z,8.90
2023-02-03T19:53:17.920Z,9.00
2023-02-03T19:55:46.059Z,9.00
2023-02-03T19:58:13.871Z,9.00
2023-02-03T20:00:41.461Z,9.00
2023-02-03T20:03:08.620Z,9.00
2023-02-03T20:05:36.268Z,9.10
2023-02-03T20:08:03.882Z,9.20
2023-02-03T20:10:32.505Z,9.20
2023-02-03T20:12:59.825Z,9.20
2023-02-03T20:15:27.051Z,9.30
2023-02-03T20:17:54.237Z,9.30
2023-02-03T20:20:21.182Z,9.30
2023-02-03T20:22:48.405Z,9.30
2023-02-03T20:25:15.541Z,9.30
2023-02-03T20:27:42.782Z,9.30
2023-02-03T20:30:10.471Z,9.30
2023-02-03T20:32:37.619Z,9.20
2023-02-03T20:35:06.223Z,9.20
2023-02-03T20:37:33.439Z,9.20
2023-02-03T20:40:00.267Z,9.20
2023-02-03T20:42:27.204Z,9.20
2023-02-03T20:44:55.100Z,9.10
2023-02-03T20:47:22.841Z,9.10
2023-02-03T20:49:50.077Z,9.10
2023-02-03T20:52:20.909Z,9.10
2023-02-03T20:54:47.950Z,9.10
2023-02-03T20:57:17.564Z,9.10
2023-02-03T20:59:45.160Z,9.10
2023-02-03T21:02:31.199Z,9.10
2023-02-03T21:04:59.090Z,9.10
2023-02-03T21:07:30.890Z,9.10
2023-02-03T21:09:59.873Z,9.10
2023-02-03T21:12:28.459Z,9.20
2023-02-03T21:14:57.005Z,9.20
2023-02-03T21:17:26.416Z,9.10
2023-02-03T21:19:54.982Z,9.20
2023-02-03T21:22:29.834Z,9.10
2023-02-03T21:24:58.929Z,9.10
2023-02-03T21:27:27.318Z,9.00
2023-02-03T21:29:57.106Z,9.10
2023-02-03T21:32:38.761Z,9.00
2023-02-03T21:35:41.108Z,9.00
2023-02-03T21:38:39.774Z,9.10
2023-02-03T21:41:17.603Z,9.10
2023-02-03T21:43:47.799Z,9.20
2023-02-03T21:46:27.938Z,9.10
2023-02-03T21:48:58.910Z,9.10
2023-02-03T21:51:29.517Z,9.10
2023-02-03T21:53:59.061Z,9.10
2023-02-03T21:56:37.193Z,9.10
2023-02-03T21:59:04.957Z,9.10
2023-02-03T22:01:37.255Z,9.10
2023-02-03T22:04:06.460Z,9.10
2023-02-03T22:06:49.019Z,9.00
2023-02-03T22:09:18.170Z,9.10
2023-02-03T22:11:45.397Z,9.00
2023-02-03T22:14:16.554Z,9.10
2023-02-03T22:16:44.146Z,9.10
2023-02-03T22:19:11.199Z,9.10
2023-02-03T22:21:37.869Z,9.10
2023-02-03T22:24:05.190Z,9.10
2023-02-03T22:26:31.933Z,9.10
2023-02-03T22:28:58.690Z,9.10
2023-02-03T22:31:25.495Z,9.00
2023-02-03T22:33:52.266Z,9.00
2023-02-03T22:36:19.094Z,9.00
2023-02-03T22:38:45.784Z,9.00
2023-02-03T22:41:12.969Z,9.00
2023-02-03T22:43:40.136Z,9.10
2023-02-03T22:46:07.627Z,9.00
2023-02-03T22:48:34.840Z,9.00
2023-02-03T22:51:01.700Z,9.00
2023-02-03T22:53:28.686Z,9.00
2023-02-03T22:55:55.827Z,9.00
2023-02-03T22:58:22.818Z,9.00
2023-02-03T23:00:49.465Z,9.00
2023-02-03T23:03:16.470Z,9.10
2023-02-03T23:05:43.576Z,9.00
2023-02-03T23:08:10.398Z,8.90
2023-02-03T23:10:37.192Z,8.90
2023-02-03T23:13:04.013Z,8.80
2023-02-03T23:15:30.888Z,8.80
2023-02-03T23:17:58.322Z,8.80
2023-02-03T23:20:25.050Z,8.80
2023-02-03T23:22:51.857Z,8.70
2023-02-03T23:25:18.718Z,8.70
2023-02-03T23:27:45.495Z,8.80
2023-02-03T23:30:13.408Z,8.80
2023-02-03T23:32:40.304Z,8.80
2023-02-03T23:35:26.076Z,8.80
2023-02-03T23:37:52.748Z,8.80
2023-02-03T23:40:19.646Z,8.90
2023-02-03T23:42:46.475Z,8.80
2023-02-03T23:45:13.243Z,8.80
2023-02-03T23:47:42.267Z,8.80
2023-02-03T23:50:10.623Z,8.80
2023-02-03T23:52:37.731Z,8.90
2023-02-03T23:55:10.428Z,8.90
2023-02-03T23:57:37.701Z,8.90
